Time;durP1;ratioP1;P1;durP2;ratioP2;P2;SDS_P1;SDS_P2;PMS_P1;PMS_P2;Temp;Humidity;BMP_temperature;BMP_pressure;BME280_temperature;BME280_humidity;BME280_pressure;Samples;Min_cycle;Max_cycle;Signal;HPM_P1;HPM_P2
2022/08/10 00:01:42;;;;;;;;;;;19.50;59.80;;;;;;5070969;28;19913;-77
2022/08/10 00:04:08;;;;;;;;;;;19.50;59.80;;;;;;5087878;28;19994;-77
2022/08/10 00:06:33;;;;;;;;;;;19.40;59.80;;;;;;5087889;28;20015;-77
2022/08/10 00:08:59;;;;;;;;;;;19.50;59.90;;;;;;5071002;28;19912;-77
2022/08/10 00:11:25;;;;;;;;;;;19.50;59.90;;;;;;5070877;28;19978;-77
2022/08/10 00:13:50;;;;;;;;;;;19.40;59.80;;;;;;5087739;28;19912;-77
2022/08/10 00:16:16;;;;;;;;;;;19.40;59.80;;;;;;5087717;28;20371;-77
2022/08/10 00:18:42;;;;;;;;;;;19.50;59.90;;;;;;5070433;28;19962;-77
2022/08/10 00:21:08;;;;;;;;;;;19.40;59.80;;;;;;5070736;28;20248;-77
2022/08/10 00:23:34;;;;;;;;;;;19.40;59.90;;;;;;5089229;28;19924;-77
2022/08/10 00:26:00;;;;;;;;;;;19.40;60.40;;;;;;5087347;28;19912;-77
2022/08/10 00:28:25;;;;;;;;;;;19.30;60.00;;;;;;5087338;28;19916;-77
2022/08/10 00:30:51;;;;;;;;;;;19.30;60.00;;;;;;5087262;28;19908;-77
2022/08/10 00:33:17;;;;;;;;;;;19.30;60.00;;;;;;5087400;28;19916;-77
2022/08/10 00:35:42;;;;;;;;;;;19.30;60.00;;;;;;5070576;28;19919;-77
2022/08/10 00:38:08;;;;;;;;;;;19.30;59.90;;;;;;5088667;28;19938;-78
2022/08/10 00:40:34;;;;;;;;;;;19.30;59.90;;;;;;5087293;28;19977;-77
2022/08/10 00:42:59;;;;;;;;;;;19.30;59.80;;;;;;5088601;28;19957;-77
2022/08/10 00:45:25;;;;;;;;;;;19.30;59.80;;;;;;5087406;28;19943;-77
2022/08/10 00:47:50;;;;;;;;;;;19.20;59.70;;;;;;5070219;28;19916;-77
2022/08/10 00:50:19;;;;;;;;;;;19.10;59.70;;;;;;5087003;28;20372;-77
2022/08/10 00:52:45;;;;;;;;;;;19.10;59.70;;;;;;5087130;28;19915;-77
2022/08/10 00:55:10;;;;;;;;;;;19.00;59.70;;;;;;5088373;28;19917;-77
2022/08/10 00:57:37;;;;;;;;;;;19.00;59.70;;;;;;5070129;28;19913;-77
2022/08/10 01:00:04;;;;;;;;;;;19.00;59.80;;;;;;5086957;28;20117;-76
2022/08/10 01:02:30;;;;;;;;;;;18.90;59.70;;;;;;5086991;28;19919;-76
2022/08/10 01:04:57;;;;;;;;;;;18.90;59.70;;;;;;5086986;28;19930;-76
2022/08/10 01:07:23;;;;;;;;;;;18.90;60.20;;;;;;5086723;28;20360;-77
2022/08/10 01:09:48;;;;;;;;;;;18.90;59.80;;;;;;5086918;28;19908;-76
2022/08/10 01:12:27;;;;;;;;;;;18.80;60.20;;;;;;5086700;28;19908;-77
2022/08/10 01:15:08;;;;;;;;;;;18.80;59.80;;;;;;5086668;28;20352;-76
2022/08/10 01:17:34;;;;;;;;;;;18.80;59.80;;;;;;5086589;28;20356;-76
2022/08/10 01:19:59;;;;;;;;;;;18.80;59.80;;;;;;5086824;28;19962;-76
2022/08/10 01:22:30;;;;;;;;;;;18.70;59.80;;;;;;5086767;28;19911;-77
2022/08/10 01:25:02;;;;;;;;;;;18.70;59.80;;;;;;5086638;28;20036;-77
2022/08/10 01:27:46;;;;;;;;;;;18.70;59.80;;;;;;5086506;28;20253;-76
2022/08/10 01:30:17;;;;;;;;;;;18.70;59.80;;;;;;5089754;28;19908;-76
2022/08/10 01:32:54;;;;;;;;;;;18.60;59.70;;;;;;5090832;28;20056;-76
2022/08/10 01:35:28;;;;;;;;;;;18.50;59.70;;;;;;5092104;28;20298;-76
2022/08/10 01:38:15;;;;;;;;;;;18.50;59.80;;;;;;5090758;28;19912;-77
2022/08/10 01:40:43;;;;;;;;;;;18.50;59.80;;;;;;5090584;28;19924;-76
2022/08/10 01:43:13;;;;;;;;;;;18.40;59.80;;;;;;5090723;28;19966;-76
2022/08/10 01:45:41;;;;;;;;;;;18.40;59.90;;;;;;5090716;28;19908;-76
2022/08/10 01:50:54;;;;;;;;;;;18.30;59.80;;;;;;5092129;28;19929;-76
2022/08/10 01:53:21;;;;;;;;;;;18.40;60.00;;;;;;5091855;28;20388;-76
2022/08/10 01:55:49;;;;;;;;;;;18.30;59.90;;;;;;5091713;28;19908;-76
2022/08/10 01:58:16;;;;;;;;;;;18.30;59.90;;;;;;5090500;28;19915;-76
2022/08/10 02:00:44;;;;;;;;;;;18.30;59.90;;;;;;5090446;28;20394;-76
2022/08/10 02:03:11;;;;;;;;;;;18.30;59.80;;;;;;5090271;28;19918;-76
2022/08/10 02:05:38;;;;;;;;;;;18.30;59.80;;;;;;5091751;28;19908;-76
2022/08/10 02:08:04;;;;;;;;;;;18.30;59.80;;;;;;5091500;28;20002;-76
2022/08/10 02:10:32;;;;;;;;;;;18.30;59.90;;;;;;5090354;28;20291;-76
2022/08/10 02:12:58;;;;;;;;;;;18.30;59.90;;;;;;5091527;28;20384;-76
2022/08/10 02:15:26;;;;;;;;;;;18.20;59.80;;;;;;5073241;28;19951;-76
2022/08/10 02:17:53;;;;;;;;;;;18.20;59.90;;;;;;5090206;28;19977;-76
2022/08/10 02:20:21;;;;;;;;;;;18.10;59.80;;;;;;5091522;28;20383;-76
2022/08/10 02:22:51;;;;;;;;;;;18.10;59.80;;;;;;5091390;28;19968;-76
2022/08/10 02:25:18;;;;;;;;;;;18.10;59.80;;;;;;5090100;28;19962;-77
2022/08/10 02:27:44;;;;;;;;;;;18.00;59.80;;;;;;5091159;28;19951;-76
2022/08/10 02:30:11;;;;;;;;;;;18.00;59.90;;;;;;5073031;28;19912;-76
2022/08/10 02:32:37;;;;;;;;;;;17.90;59.80;;;;;;5073242;28;19912;-76
2022/08/10 02:35:04;;;;;;;;;;;17.90;59.90;;;;;;5089959;28;19912;-76
2022/08/10 02:37:30;;;;;;;;;;;17.90;59.90;;;;;;5089625;28;19919;-76
2022/08/10 02:39:56;;;;;;;;;;;17.80;59.90;;;;;;5072641;28;19931;-76
2022/08/10 02:42:23;;;;;;;;;;;17.80;59.90;;;;;;5089324;28;19920;-79
2022/08/10 02:45:08;;;;;;;;;;;17.80;59.90;;;;;;5090906;28;19912;-76
2022/08/10 02:47:34;;;;;;;;;;;17.70;59.90;;;;;;5089612;28;19947;-76
2022/08/10 02:50:08;;;;;;;;;;;17.70;59.90;;;;;;5091004;28;20366;-76
2022/08/10 02:52:39;;;;;;;;;;;17.60;59.90;;;;;;5089297;28;19931;-77
2022/08/10 02:55:09;;;;;;;;;;;17.60;59.90;;;;;;5089448;28;19954;-77
2022/08/10 02:57:36;;;;;;;;;;;17.50;59.90;;;;;;5090585;28;20382;-76
2022/08/10 03:00:04;;;;;;;;;;;17.50;60.00;;;;;;5089332;28;19927;-76
2022/08/10 03:02:38;;;;;;;;;;;17.40;59.90;;;;;;5089317;28;19973;-76
2022/08/10 03:05:06;;;;;;;;;;;17.40;59.90;;;;;;5089315;28;19908;-76
2022/08/10 03:07:35;;;;;;;;;;;17.40;60.00;;;;;;5088899;28;19908;-76
2022/08/10 03:10:01;;;;;;;;;;;17.40;60.00;;;;;;5090316;28;19908;-76
2022/08/10 03:12:27;;;;;;;;;;;17.30;60.00;;;;;;5072358;28;20020;-77
2022/08/10 03:14:53;;;;;;;;;;;17.30;60.00;;;;;;5089008;28;19971;-76
2022/08/10 03:17:19;;;;;;;;;;;17.30;60.00;;;;;;5088826;28;19908;-76
2022/08/10 03:19:45;;;;;;;;;;;17.30;60.00;;;;;;5088848;28;20360;-76
2022/08/10 03:22:11;;;;;;;;;;;17.30;60.00;;;;;;5089040;28;19966;-76
2022/08/10 03:24:37;;;;;;;;;;;17.30;60.00;;;;;;5088939;28;19908;-76
2022/08/10 03:27:03;;;;;;;;;;;17.30;60.00;;;;;;5088752;28;19908;-76
2022/08/10 03:29:30;;;;;;;;;;;17.30;60.00;;;;;;5088945;28;19920;-76
2022/08/10 03:31:57;;;;;;;;;;;17.30;60.00;;;;;;5088726;28;19965;-76
2022/08/10 03:34:23;;;;;;;;;;;17.30;60.00;;;;;;5089964;28;19930;-77
2022/08/10 03:36:48;;;;;;;;;;;17.20;60.00;;;;;;5088498;28;19909;-77
2022/08/10 03:39:14;;;;;;;;;;;17.20;60.00;;;;;;5088366;28;19920;-77
2022/08/10 03:41:48;;;;;;;;;;;17.20;60.00;;;;;;5089924;28;19908;-77
2022/08/10 03:44:17;;;;;;;;;;;17.20;60.00;;;;;;5089875;28;19912;-77
2022/08/10 03:46:44;;;;;;;;;;;17.20;60.00;;;;;;5089608;28;20413;-77
2022/08/10 03:49:11;;;;;;;;;;;17.20;60.00;;;;;;5089375;28;20435;-77
2022/08/10 03:51:37;;;;;;;;;;;17.20;60.00;;;;;;5088148;28;19952;-77
2022/08/10 03:54:03;;;;;;;;;;;17.20;60.00;;;;;;5070554;28;19967;-77
2022/08/10 03:56:29;;;;;;;;;;;17.20;60.00;;;;;;5089247;28;19918;-77
2022/08/10 03:58:55;;;;;;;;;;;17.10;60.00;;;;;;5088057;28;19908;-77
2022/08/10 04:01:21;;;;;;;;;;;17.10;60.00;;;;;;5088071;28;19977;-77
2022/08/10 04:03:46;;;;;;;;;;;17.10;60.00;;;;;;5089377;28;19965;-77
2022/08/10 04:06:12;;;;;;;;;;;17.00;60.00;;;;;;5087920;28;19948;-77
2022/08/10 04:08:41;;;;;;;;;;;17.00;60.00;;;;;;5088041;28;19957;-77
2022/08/10 04:11:08;;;;;;;;;;;17.00;60.10;;;;;;5087994;28;19912;-77
2022/08/10 04:13:33;;;;;;;;;;;17.00;60.10;;;;;;5071053;28;20007;-76
2022/08/10 04:15:59;;;;;;;;;;;16.90;60.00;;;;;;5071063;28;20034;-77
2022/08/10 04:18:24;;;;;;;;;;;17.00;60.10;;;;;;5071175;28;20284;-77
2022/08/10 04:20:55;;;;;;;;;;;16.90;60.10;;;;;;5070828;28;19935;-77
2022/08/10 04:23:23;;;;;;;;;;;16.90;60.10;;;;;;5087716;28;19909;-77
2022/08/10 04:25:50;;;;;;;;;;;16.90;60.10;;;;;;5087505;28;20288;-77
2022/08/10 04:28:16;;;;;;;;;;;16.80;60.10;;;;;;5087585;28;19919;-76
2022/08/10 04:30:43;;;;;;;;;;;16.80;60.10;;;;;;5070765;28;19916;-77
2022/08/10 04:33:09;;;;;;;;;;;16.80;60.00;;;;;;5088879;28;19912;-77
2022/08/10 04:35:36;;;;;;;;;;;16.80;60.00;;;;;;5087284;28;19919;-77
2022/08/10 04:38:02;;;;;;;;;;;16.70;60.00;;;;;;5087437;28;20002;-77
2022/08/10 04:40:28;;;;;;;;;;;16.70;60.00;;;;;;5087309;28;19967;-77
2022/08/10 04:42:53;;;;;;;;;;;16.70;60.00;;;;;;5087331;28;19958;-77
2022/08/10 04:45:19;;;;;;;;;;;16.60;60.00;;;;;;5087260;28;19908;-77
2022/08/10 04:47:44;;;;;;;;;;;16.50;60.00;;;;;;5087014;28;19922;-76
2022/08/10 04:50:10;;;;;;;;;;;16.50;60.00;;;;;;5070431;28;19916;-77
2022/08/10 04:52:36;;;;;;;;;;;16.40;60.00;;;;;;5087042;28;19908;-76
2022/08/10 04:55:01;;;;;;;;;;;16.40;60.00;;;;;;5086929;28;20018;-77
2022/08/10 04:57:27;;;;;;;;;;;16.40;60.10;;;;;;5086995;28;19912;-77
2022/08/10 04:59:53;;;;;;;;;;;16.40;60.00;;;;;;5088118;28;19934;-77
2022/08/10 05:02:18;;;;;;;;;;;16.40;60.00;;;;;;5087010;28;19919;-76
2022/08/10 05:04:44;;;;;;;;;;;16.40;60.10;;;;;;5086940;28;19912;-77
2022/08/10 05:07:14;;;;;;;;;;;16.30;60.50;;;;;;5070075;28;19996;-77
2022/08/10 05:09:40;;;;;;;;;;;16.30;60.00;;;;;;5086860;28;19912;-77
2022/08/10 05:12:06;;;;;;;;;;;16.30;60.10;;;;;;5086888;28;19916;-77
2022/08/10 05:14:31;;;;;;;;;;;16.30;60.10;;;;;;5086866;28;19931;-77
2022/08/10 05:16:57;;;;;;;;;;;16.30;60.10;;;;;;5088205;28;19916;-77
2022/08/10 05:19:23;;;;;;;;;;;16.30;60.10;;;;;;5070073;28;19965;-78
2022/08/10 05:21:48;;;;;;;;;;;16.30;60.10;;;;;;5086894;28;20333;-77
2022/08/10 05:24:14;;;;;;;;;;;16.40;60.20;;;;;;5086651;28;19918;-77
2022/08/10 05:26:39;;;;;;;;;;;16.40;60.20;;;;;;5088248;28;19912;-78
2022/08/10 05:29:05;;;;;;;;;;;16.40;60.20;;;;;;5087926;28;19916;-77
2022/08/10 05:31:31;;;;;;;;;;;16.40;60.20;;;;;;5086509;28;20019;-77
2022/08/10 05:33:56;;;;;;;;;;;16.40;60.10;;;;;;5086796;28;19919;-77
2022/08/10 05:36:23;;;;;;;;;;;16.50;60.10;;;;;;5069827;28;19919;-77
2022/08/10 05:38:48;;;;;;;;;;;16.50;60.10;;;;;;5086560;28;19913;-77
2022/08/10 05:41:15;;;;;;;;;;;16.50;60.10;;;;;;5086714;28;20374;-77
2022/08/10 05:43:41;;;;;;;;;;;16.50;60.10;;;;;;5087759;28;19912;-77
2022/08/10 05:46:07;;;;;;;;;;;16.50;60.10;;;;;;5069731;28;20334;-77
2022/08/10 05:48:33;;;;;;;;;;;16.50;60.10;;;;;;5086153;28;19912;-77
2022/08/10 05:50:58;;;;;;;;;;;16.60;60.10;;;;;;5086393;28;20081;-77
2022/08/10 05:53:24;;;;;;;;;;;16.60;60.10;;;;;;5069393;28;19959;-77
2022/08/10 05:55:50;;;;;;;;;;;16.70;60.20;;;;;;5069566;28;19920;-77
2022/08/10 05:58:15;;;;;;;;;;;16.70;60.10;;;;;;5086347;28;19905;-77
2022/08/10 06:00:45;;;;;;;;;;;16.70;60.00;;;;;;5069487;28;19916;-77
2022/08/10 06:03:13;;;;;;;;;;;16.80;60.10;;;;;;5086217;28;19912;-78
2022/08/10 06:05:40;;;;;;;;;;;16.80;60.10;;;;;;5086745;28;19915;-76
2022/08/10 06:08:08;;;;;;;;;;;16.80;60.20;;;;;;5087366;28;19920;-77
2022/08/10 06:10:36;;;;;;;;;;;16.80;60.10;;;;;;5086575;28;19935;-77
2022/08/10 06:15:47;;;;;;;;;;;16.90;60.10;;;;;;5088621;28;19915;-77
2022/08/10 06:18:14;;;;;;;;;;;17.00;60.10;;;;;;5073029;28;19912;-77
2022/08/10 06:20:40;;;;;;;;;;;17.00;60.10;;;;;;5073102;28;19941;-77
2022/08/10 06:23:06;;;;;;;;;;;17.00;60.00;;;;;;5089659;28;19912;-71
2022/08/10 06:25:32;;;;;;;;;;;17.00;60.00;;;;;;5089532;28;19916;-75
2022/08/10 06:27:58;;;;;;;;;;;17.10;60.10;;;;;;5090794;28;19922;-76
2022/08/10 06:30:25;;;;;;;;;;;17.10;60.30;;;;;;5089624;28;20045;-77
2022/08/10 06:32:52;;;;;;;;;;;17.70;60.80;;;;;;5073227;28;19912;-77
2022/08/10 06:35:18;;;;;;;;;;;19.00;60.30;;;;;;5089135;28;20367;-77
2022/08/10 06:37:44;;;;;;;;;;;19.70;58.60;;;;;;5089292;28;20008;-77
2022/08/10 06:40:11;;;;;;;;;;;19.60;58.00;;;;;;5072378;28;20388;-77
2022/08/10 06:42:39;;;;;;;;;;;19.30;58.10;;;;;;5072984;28;20360;-77
2022/08/10 06:45:07;;;;;;;;;;;19.00;58.50;;;;;;5089731;28;19908;-77
2022/08/10 06:47:40;;;;;;;;;;;18.60;58.80;;;;;;5090779;28;20258;-77
2022/08/10 06:50:16;;;;;;;;;;;18.40;59.10;;;;;;5089110;28;19961;-78
2022/08/10 06:52:42;;;;;;;;;;;18.20;59.40;;;;;;5090583;28;20296;-77
2022/08/10 06:55:11;;;;;;;;;;;18.10;59.60;;;;;;5089162;28;19922;-77
2022/08/10 06:57:37;;;;;;;;;;;18.00;59.70;;;;;;5088871;28;20374;-77
2022/08/10 07:00:05;;;;;;;;;;;18.00;59.90;;;;;;5090013;28;19925;-77
2022/08/10 07:02:42;;;;;;;;;;;17.90;59.90;;;;;;5088683;28;19941;-77
2022/08/10 07:05:11;;;;;;;;;;;17.90;60.00;;;;;;5089139;28;19962;-77
2022/08/10 07:07:38;;;;;;;;;;;17.80;60.00;;;;;;5089084;28;20374;-77
2022/08/10 07:10:03;;;;;;;;;;;17.80;60.10;;;;;;5088623;28;19919;-77
2022/08/10 07:12:30;;;;;;;;;;;17.90;60.70;;;;;;5090958;28;19913;-77
2022/08/10 07:14:56;;;;;;;;;;;17.90;60.20;;;;;;5072200;28;20007;-77
2022/08/10 07:17:23;;;;;;;;;;;17.90;60.20;;;;;;5071693;28;19970;-77
2022/08/10 07:19:51;;;;;;;;;;;18.00;60.40;;;;;;5088725;28;19957;-77
2022/08/10 07:22:18;;;;;;;;;;;18.90;61.60;;;;;;5088897;28;19965;-77
2022/08/10 07:24:44;;;;;;;;;;;20.80;61.10;;;;;;5090103;28;19908;-78
2022/08/10 07:27:11;;;;;;;;;;;22.50;59.10;;;;;;5070589;28;19921;-77
2022/08/10 07:29:38;;;;;;;;;;;23.60;57.30;;;;;;5089872;28;19919;-78
2022/08/10 07:32:04;;;;;;;;;;;23.80;57.20;;;;;;5088578;28;19908;-77
2022/08/10 07:34:30;;;;;;;;;;;23.80;56.70;;;;;;5088385;28;20237;-77
2022/08/10 07:37:02;;;;;;;;;;;23.50;56.80;;;;;;5088387;28;20013;-77
2022/08/10 07:39:29;;;;;;;;;;;23.70;58.20;;;;;;5089770;28;19923;-78
2022/08/10 07:41:55;;;;;;;;;;;24.90;58.60;;;;;;5088144;28;19953;-78
2022/08/10 07:44:25;;;;;;;;;;;26.40;58.50;;;;;;5088236;28;19908;-77
2022/08/10 07:46:52;;;;;;;;;;;27.80;58.20;;;;;;5088042;28;19922;-78
2022/08/10 07:49:22;;;;;;;;;;;29.00;57.70;;;;;;5089304;28;19934;-78
2022/08/10 07:51:51;;;;;;;;;;;30.00;57.60;;;;;;5088673;28;20441;-78
2022/08/10 07:54:17;;;;;;;;;;;30.70;57.50;;;;;;5089253;28;19915;-77
2022/08/10 07:56:46;;;;;;;;;;;31.50;57.60;;;;;;5087427;28;19915;-78
2022/08/10 07:59:14;;;;;;;;;;;32.10;57.70;;;;;;5087511;28;19915;-79
2022/08/10 08:01:43;;;;;;;;;;;32.50;57.60;;;;;;5087549;28;19912;-78
2022/08/10 08:04:09;;;;;;;;;;;32.90;57.90;;;;;;5087706;28;19966;-79
2022/08/10 08:06:35;;;;;;;;;;;33.20;58.40;;;;;;5088994;28;19945;-79
2022/08/10 08:09:02;;;;;;;;;;;33.60;58.80;;;;;;5088849;28;20329;-78
2022/08/10 08:11:29;;;;;;;;;;;34.10;58.90;;;;;;5088892;28;19916;-79
2022/08/10 08:13:55;;;;;;;;;;;34.50;58.70;;;;;;5087935;28;19919;-79
2022/08/10 08:16:21;;;;;;;;;;;34.80;58.70;;;;;;5070662;28;20298;-79
2022/08/10 08:18:47;;;;;;;;;;;35.00;58.50;;;;;;5087433;28;19912;-79
2022/08/10 08:21:13;;;;;;;;;;;35.30;58.80;;;;;;5087178;28;19938;-79
2022/08/10 08:23:39;;;;;;;;;;;35.50;59.10;;;;;;5070511;28;20321;-79
2022/08/10 08:26:05;;;;;;;;;;;35.50;59.60;;;;;;5088474;28;19953;-78
2022/08/10 08:28:32;;;;;;;;;;;35.60;59.90;;;;;;5087202;28;19916;-79
2022/08/10 08:30:58;;;;;;;;;;;35.90;60.00;;;;;;5088563;28;20325;-79
2022/08/10 08:33:24;;;;;;;;;;;36.20;60.10;;;;;;5069992;28;20014;-79
2022/08/10 08:35:50;;;;;;;;;;;36.30;60.40;;;;;;5087312;28;19920;-79
2022/08/10 08:38:16;;;;;;;;;;;36.50;60.80;;;;;;5086340;28;20026;-79
2022/08/10 08:40:46;;;;;;;;;;;36.80;60.90;;;;;;5069563;28;20410;-79
2022/08/10 08:43:41;;;;;;;;;;;37.10;60.90;;;;;;5088560;28;19935;-79
2022/08/10 08:46:19;;;;;;;;;;;37.40;60.90;;;;;;5078277;28;19908;-79
2022/08/10 08:48:45;;;;;;;;;;;37.20;61.00;;;;;;5087917;28;19915;-79
2022/08/10 08:51:29;;;;;;;;;;;37.00;61.50;;;;;;5086326;28;19916;-79
2022/08/10 08:54:01;;;;;;;;;;;37.20;61.80;;;;;;5086037;28;19915;-79
2022/08/10 08:56:38;;;;;;;;;;;37.60;61.60;;;;;;5087352;28;20045;-79
2022/08/10 08:59:04;;;;;;;;;;;38.10;61.40;;;;;;5087522;28;19912;-79
2022/08/10 09:01:46;;;;;;;;;;;38.10;61.20;;;;;;5088896;28;20030;-81
2022/08/10 09:04:31;;;;;;;;;;;38.10;61.70;;;;;;5087081;28;19944;-81
2022/08/10 09:07:28;;;;;;;;;;;38.40;61.70;;;;;;5087850;28;20326;-81
2022/08/10 09:09:54;;;;;;;;;;;38.40;61.80;;;;;;5063619;28;20141;-79
2022/08/10 09:12:35;;;;;;;;;;;38.70;61.90;;;;;;5086311;28;20011;-79
2022/08/10 09:15:06;;;;;;;;;;;39.10;61.90;;;;;;5086051;28;19919;-80
2022/08/10 09:17:49;;;;;;;;;;;39.40;61.60;;;;;;5087000;28;19908;-80
2022/08/10 09:20:23;;;;;;;;;;;39.40;61.00;;;;;;5083005;28;19959;-78
2022/08/10 09:22:56;;;;;;;;;;;39.50;60.90;;;;;;5085535;28;20310;-78
2022/08/10 09:25:24;;;;;;;;;;;39.70;60.90;;;;;;5087770;28;19916;-78
2022/08/10 09:27:59;;;;;;;;;;;39.80;61.00;;;;;;5086546;28;20230;-78
2022/08/10 09:30:37;;;;;;;;;;;39.80;61.40;;;;;;5086410;28;19908;-78
2022/08/10 09:33:18;;;;;;;;;;;39.80;61.30;;;;;;5085128;28;20268;-78
2022/08/10 09:35:56;;;;;;;;;;;39.90;61.40;;;;;;5086554;28;19916;-78
2022/08/10 09:38:40;;;;;;;;;;;40.00;61.20;;;;;;5087664;28;20355;-78
2022/08/10 09:41:19;;;;;;;;;;;40.30;61.30;;;;;;5084645;28;19924;-78
2022/08/10 09:43:47;;;;;;;;;;;40.60;61.30;;;;;;5083974;28;19912;-78
2022/08/10 09:46:23;;;;;;;;;;;40.70;61.40;;;;;;5086561;28;19908;-77
2022/08/10 09:48:55;;;;;;;;;;;40.80;61.80;;;;;;5087774;28;19908;-78
2022/08/10 09:51:26;;;;;;;;;;;40.80;61.70;;;;;;5089709;28;20368;-77
2022/08/10 09:53:59;;;;;;;;;;;40.80;61.40;;;;;;5091717;28;19912;-77
2022/08/10 09:56:47;;;;;;;;;;;40.80;61.50;;;;;;5090002;28;19996;-78
2022/08/10 09:59:19;;;;;;;;;;;40.80;61.60;;;;;;5065935;28;19921;-77
2022/08/10 10:01:54;;;;;;;;;;;40.80;61.20;;;;;;5092636;28;20360;-78
2022/08/10 10:04:19;;;;;;;;;;;40.90;61.20;;;;;;5089739;28;19939;-77
2022/08/10 10:06:55;;;;;;;;;;;40.80;61.00;;;;;;5090040;28;20364;-78
2022/08/10 10:09:29;;;;;;;;;;;40.90;61.30;;;;;;5089422;28;19916;-78
2022/08/10 10:12:13;;;;;;;;;;;41.10;61.40;;;;;;5086167;28;20031;-78
2022/08/10 10:17:42;;;;;;;;;;;41.70;61.40;;;;;;5091367;28;20592;-78
2022/08/10 10:20:10;;;;;;;;;;;41.90;61.20;;;;;;5091170;28;19923;-78
2022/08/10 10:22:40;;;;;;;;;;;42.20;61.30;;;;;;5091775;28;20376;-78
2022/08/10 10:25:16;;;;;;;;;;;42.30;61.20;;;;;;5090985;28;19981;-78
2022/08/10 10:27:47;;;;;;;;;;;42.30;61.00;;;;;;5090217;28;19938;-77
2022/08/10 10:30:13;;;;;;;;;;;42.20;61.10;;;;;;5090762;28;19908;-77
2022/08/10 10:32:58;;;;;;;;;;;42.30;61.40;;;;;;5091206;28;19912;-78
2022/08/10 10:35:31;;;;;;;;;;;42.50;61.70;;;;;;5089968;28;19967;-77
2022/08/10 10:37:57;;;;;;;;;;;42.30;62.00;;;;;;5090565;28;19909;-78
2022/08/10 10:40:25;;;;;;;;;;;42.10;62.10;;;;;;5090633;28;19931;-78
2022/08/10 10:43:00;;;;;;;;;;;42.20;62.00;;;;;;5089826;28;19958;-77
2022/08/10 10:45:50;;;;;;;;;;;42.20;61.90;;;;;;5088085;28;19947;-78
2022/08/10 10:48:27;;;;;;;;;;;42.40;61.80;;;;;;5089491;28;19934;-78
2022/08/10 10:50:52;;;;;;;;;;;42.60;62.00;;;;;;5087725;28;19908;-79
2022/08/10 10:53:24;;;;;;;;;;;42.60;62.30;;;;;;5090930;28;19912;-77
2022/08/10 10:55:55;;;;;;;;;;;42.40;62.80;;;;;;5090446;28;19942;-78
2022/08/10 10:58:25;;;;;;;;;;;42.50;63.20;;;;;;5090098;28;19947;-78
2022/08/10 11:00:54;;;;;;;;;;;42.80;63.00;;;;;;5089809;28;19994;-77
2022/08/10 11:03:22;;;;;;;;;;;43.10;62.70;;;;;;5088171;28;19922;-78
2022/08/10 11:05:51;;;;;;;;;;;43.40;62.60;;;;;;5089995;28;20009;-78
2022/08/10 11:08:29;;;;;;;;;;;43.40;62.20;;;;;;5089901;28;19908;-78
2022/08/10 11:10:59;;;;;;;;;;;43.10;62.40;;;;;;5087238;28;19941;-78
2022/08/10 11:13:41;;;;;;;;;;;42.80;62.30;;;;;;5089905;28;20472;-78
2022/08/10 11:16:16;;;;;;;;;;;42.80;62.40;;;;;;5088622;28;19908;-78
2022/08/10 11:18:51;;;;;;;;;;;42.60;62.20;;;;;;5088623;28;19962;-78
2022/08/10 11:21:23;;;;;;;;;;;42.70;62.20;;;;;;5090365;28;20336;-78
2022/08/10 11:23:53;;;;;;;;;;;42.70;62.00;;;;;;5088793;28;19916;-79
2022/08/10 11:26:27;;;;;;;;;;;42.50;62.00;;;;;;5091080;28;19916;-77
2022/08/10 11:29:06;;;;;;;;;;;42.20;62.00;;;;;;5091011;28;19915;-77
2022/08/10 11:31:38;;;;;;;;;;;41.90;62.20;;;;;;5088754;28;19994;-79
2022/08/10 11:34:10;;;;;;;;;;;41.80;62.50;;;;;;5088996;28;20356;-76
2022/08/10 11:36:47;;;;;;;;;;;41.90;62.60;;;;;;5090481;28;19961;-77
2022/08/10 11:39:16;;;;;;;;;;;42.00;62.50;;;;;;5088489;28;19927;-75
2022/08/10 11:42:00;;;;;;;;;;;42.20;62.30;;;;;;5090014;28;19919;-78
2022/08/10 11:44:34;;;;;;;;;;;42.20;62.30;;;;;;5088742;28;19915;-78
2022/08/10 11:47:03;;;;;;;;;;;42.30;62.30;;;;;;5089807;28;19931;-77
2022/08/10 11:49:44;;;;;;;;;;;42.60;62.30;;;;;;5090099;28;19915;-78
2022/08/10 11:52:39;;;;;;;;;;;42.60;61.90;;;;;;5090150;28;20003;-81
2022/08/10 11:55:24;;;;;;;;;;;42.60;61.80;;;;;;5071388;28;19908;-78
2022/08/10 11:57:51;;;;;;;;;;;42.50;61.70;;;;;;5089052;28;19912;-76
2022/08/10 12:00:17;;;;;;;;;;;42.60;62.10;;;;;;5092412;28;20007;-78
2022/08/10 12:03:03;;;;;;;;;;;42.80;62.10;;;;;;5092711;28;19908;-80
2022/08/10 12:05:31;;;;;;;;;;;42.70;61.70;;;;;;5093406;28;19908;-78
2022/08/10 12:07:58;;;;;;;;;;;42.70;61.80;;;;;;5093239;28;19908;-79
2022/08/10 12:10:25;;;;;;;;;;;42.70;62.10;;;;;;5089654;28;19908;-79
2022/08/10 12:13:03;;;;;;;;;;;42.80;62.10;;;;;;5089263;28;20664;-77
2022/08/10 12:15:39;;;;;;;;;;;42.80;62.00;;;;;;5088416;28;19915;-79
2022/08/10 12:18:14;;;;;;;;;;;42.60;62.20;;;;;;5088359;28;19916;-80
2022/08/10 12:20:42;;;;;;;;;;;42.60;62.80;;;;;;5089424;28;20008;-79
2022/08/10 12:23:21;;;;;;;;;;;42.50;63.10;;;;;;5090091;28;19912;-81
2022/08/10 12:25:57;;;;;;;;;;;42.50;63.20;;;;;;5088279;28;20470;-80
2022/08/10 12:28:27;;;;;;;;;;;42.90;63.20;;;;;;5089620;28;19930;-78
2022/08/10 12:30:56;;;;;;;;;;;42.90;62.80;;;;;;5089000;28;19947;-79
2022/08/10 12:33:24;;;;;;;;;;;42.70;63.20;;;;;;5087613;28;19908;-78
2022/08/10 12:35:57;;;;;;;;;;;42.60;62.80;;;;;;5089181;28;19908;-80
2022/08/10 12:38:26;;;;;;;;;;;42.60;62.70;;;;;;5089850;28;20027;-79
2022/08/10 12:40:56;;;;;;;;;;;42.50;62.40;;;;;;5087486;28;19928;-82
2022/08/10 12:43:21;;;;;;;;;;;41.90;62.70;;;;;;5089523;28;19908;-79
2022/08/10 12:45:59;;;;;;;;;;;41.60;63.40;;;;;;5089195;28;20312;-80
2022/08/10 12:48:28;;;;;;;;;;;41.60;63.20;;;;;;5089119;28;19918;-81
2022/08/10 12:50:59;;;;;;;;;;;41.60;63.10;;;;;;5087721;28;19962;-80
2022/08/10 12:53:43;;;;;;;;;;;41.60;63.10;;;;;;5087614;28;19912;-80
2022/08/10 12:56:09;;;;;;;;;;;41.40;63.30;;;;;;5089357;28;20378;-79
2022/08/10 12:58:38;;;;;;;;;;;41.40;63.10;;;;;;5087599;28;19920;-80
2022/08/10 13:01:05;;;;;;;;;;;41.30;63.20;;;;;;5087173;28;19912;-80
2022/08/10 13:03:32;;;;;;;;;;;41.20;63.20;;;;;;5087249;28;20249;-81
2022/08/10 13:06:02;;;;;;;;;;;41.10;62.70;;;;;;5086897;28;19953;-78
2022/08/10 13:11:16;;;;;;;;;;;40.40;62.30;;;;;;5088740;28;19934;-80
2022/08/10 13:13:44;;;;;;;;;;;40.20;62.50;;;;;;5088414;28;19923;-79
2022/08/10 13:16:10;;;;;;;;;;;40.10;62.50;;;;;;5087059;28;19908;-84
2022/08/10 13:18:38;;;;;;;;;;;40.10;62.60;;;;;;5089071;28;20336;-80
2022/08/10 13:21:05;;;;;;;;;;;40.20;62.50;;;;;;5087197;28;19912;-75
2022/08/10 13:23:33;;;;;;;;;;;40.20;62.30;;;;;;5087777;28;19977;-77
2022/08/10 13:25:59;;;;;;;;;;;40.20;62.10;;;;;;5085437;28;19916;-76
2022/08/10 13:28:34;;;;;;;;;;;40.20;62.10;;;;;;5087565;28;19908;-77
2022/08/10 13:31:02;;;;;;;;;;;40.00;62.10;;;;;;5087870;28;19964;-77
2022/08/10 13:33:29;;;;;;;;;;;39.60;61.80;;;;;;5088061;28;19923;-77
2022/08/10 13:35:57;;;;;;;;;;;39.00;61.60;;;;;;5079603;28;20261;-77
2022/08/10 13:38:24;;;;;;;;;;;38.20;61.10;;;;;;5080036;28;20408;-77
2022/08/10 13:40:50;;;;;;;;;;;37.70;61.10;;;;;;5085595;28;19928;-77
2022/08/10 13:43:17;;;;;;;;;;;37.10;61.10;;;;;;5087521;28;19908;-77
2022/08/10 13:45:43;;;;;;;;;;;36.70;61.00;;;;;;5087538;28;20260;-77
2022/08/10 13:48:13;;;;;;;;;;;36.20;60.80;;;;;;5087427;28;19912;-77
2022/08/10 13:50:39;;;;;;;;;;;35.80;60.90;;;;;;5086403;28;20322;-76
2022/08/10 13:53:07;;;;;;;;;;;35.40;60.70;;;;;;5087347;28;20004;-77
2022/08/10 13:55:33;;;;;;;;;;;35.00;60.70;;;;;;5086168;28;20295;-77
2022/08/10 13:58:00;;;;;;;;;;;34.70;60.80;;;;;;5087141;28;19947;-77
2022/08/10 14:00:34;;;;;;;;;;;34.50;60.90;;;;;;5087875;28;19912;-76
2022/08/10 14:03:03;;;;;;;;;;;34.30;60.70;;;;;;5087795;28;19908;-76
2022/08/10 14:05:34;;;;;;;;;;;34.10;60.50;;;;;;5086333;28;19926;-75
2022/08/10 14:08:01;;;;;;;;;;;33.90;60.30;;;;;;5087827;28;19946;-75
2022/08/10 14:10:27;;;;;;;;;;;33.60;60.20;;;;;;5087685;28;19947;-77
2022/08/10 14:12:54;;;;;;;;;;;33.40;60.10;;;;;;5086688;28;19915;-77
2022/08/10 14:15:26;;;;;;;;;;;33.10;60.00;;;;;;5087865;28;20010;-76
2022/08/10 14:17:53;;;;;;;;;;;33.00;60.10;;;;;;5087917;28;19962;-75
2022/08/10 14:20:19;;;;;;;;;;;32.80;60.00;;;;;;5087599;28;20355;-75
2022/08/10 14:22:45;;;;;;;;;;;32.70;60.00;;;;;;5086247;28;19940;-75
2022/08/10 14:25:12;;;;;;;;;;;32.70;59.90;;;;;;5086796;28;19966;-75
2022/08/10 14:27:39;;;;;;;;;;;32.60;59.70;;;;;;5085896;28;19990;-76
2022/08/10 14:30:05;;;;;;;;;;;32.50;59.60;;;;;;5086501;28;20276;-76
2022/08/10 14:32:38;;;;;;;;;;;32.30;59.80;;;;;;5087162;28;19934;-75
2022/08/10 14:35:06;;;;;;;;;;;32.30;60.00;;;;;;5087124;28;19916;-76
2022/08/10 14:37:40;;;;;;;;;;;32.30;59.80;;;;;;5087850;28;20269;-75
2022/08/10 14:40:16;;;;;;;;;;;32.30;59.50;;;;;;5089448;28;19962;-74